sensor_id;sensor_type;location;lat;lon;timestamp;temperature;humidity
19403;DHT22;9837;48.888;8.998;2023-05-07T00:00:20;20.40;55.20
19403;DHT22;9837;48.888;8.998;2023-05-07T00:02:46;20.40;55.20
19403;DHT22;9837;48.888;8.998;2023-05-07T00:05:11;20.50;55.20
19403;DHT22;9837;48.888;8.998;2023-05-07T00:10:04;20.40;55.30
19403;DHT22;9837;48.888;8.998;2023-05-07T00:12:32;20.50;55.20
19403;DHT22;9837;48.888;8.998;2023-05-07T00:15:00;20.50;55.20
19403;DHT22;9837;48.888;8.998;2023-05-07T00:19:51;20.40;55.20
19403;DHT22;9837;48.888;8.998;2023-05-07T00:24:43;20.40;55.50
19403;DHT22;9837;48.888;8.998;2023-05-07T00:27:08;20.30;55.60
19403;DHT22;9837;48.888;8.998;2023-05-07T00:32:00;20.20;56.00
19403;DHT22;9837;48.888;8.998;2023-05-07T00:34:25;20.10;56.10
19403;DHT22;9837;48.888;8.998;2023-05-07T00:39:16;20.00;56.40
19403;DHT22;9837;48.888;8.998;2023-05-07T00:49:00;19.70;56.90
19403;DHT22;9837;48.888;8.998;2023-05-07T00:51:26;19.80;57.00
19403;DHT22;9837;48.888;8.998;2023-05-07T00:53:53;19.70;57.00
19403;DHT22;9837;48.888;8.998;2023-05-07T00:56:20;19.80;57.00
19403;DHT22;9837;48.888;8.998;2023-05-07T00:58:46;19.80;57.10
19403;DHT22;9837;48.888;8.998;2023-05-07T01:01:12;19.70;57.20
19403;DHT22;9837;48.888;8.998;2023-05-07T01:06:05;19.70;57.40
19403;DHT22;9837;48.888;8.998;2023-05-07T01:08:32;19.70;57.30
19403;DHT22;9837;48.888;8.998;2023-05-07T01:13:25;19.70;57.30
19403;DHT22;9837;48.888;8.998;2023-05-07T01:15:50;19.70;57.40
19403;DHT22;9837;48.888;8.998;2023-05-07T01:18:16;19.60;57.50
19403;DHT22;9837;48.888;8.998;2023-05-07T01:20:42;19.60;57.60
19403;DHT22;9837;48.888;8.998;2023-05-07T01:23:08;19.60;57.60
19403;DHT22;9837;48.888;8.998;2023-05-07T01:25:35;19.60;57.60
19403;DHT22;9837;48.888;8.998;2023-05-07T01:28:01;19.50;57.80
19403;DHT22;9837;48.888;8.998;2023-05-07T01:30:27;19.50;58.00
19403;DHT22;9837;48.888;8.998;2023-05-07T01:35:27;19.40;58.10
19403;DHT22;9837;48.888;8.998;2023-05-07T01:37:54;19.30;58.30
19403;DHT22;9837;48.888;8.998;2023-05-07T01:40:20;19.20;58.50
19403;DHT22;9837;48.888;8.998;2023-05-07T01:42:46;19.20;58.70
19403;DHT22;9837;48.888;8.998;2023-05-07T01:47:39;19.20;59.00
19403;DHT22;9837;48.888;8.998;2023-05-07T01:50:06;19.20;58.90
19403;DHT22;9837;48.888;8.998;2023-05-07T01:52:34;19.20;58.60
19403;DHT22;9837;48.888;8.998;2023-05-07T01:54:59;19.10;58.50
19403;DHT22;9837;48.888;8.998;2023-05-07T01:57:25;19.20;58.40
19403;DHT22;9837;48.888;8.998;2023-05-07T01:59:51;19.20;58.00
19403;DHT22;9837;48.888;8.998;2023-05-07T02:02:16;19.30;57.80
19403;DHT22;9837;48.888;8.998;2023-05-07T02:04:42;19.30;57.80
19403;DHT22;9837;48.888;8.998;2023-05-07T02:07:07;19.10;57.50
19403;DHT22;9837;48.888;8.998;2023-05-07T02:11:59;19.40;57.10
19403;DHT22;9837;48.888;8.998;2023-05-07T02:14:25;19.60;56.80
19403;DHT22;9837;48.888;8.998;2023-05-07T02:19:17;19.60;56.40
19403;DHT22;9837;48.888;8.998;2023-05-07T02:21:43;19.60;56.50
19403;DHT22;9837;48.888;8.998;2023-05-07T02:26:35;19.70;56.30
19403;DHT22;9837;48.888;8.998;2023-05-07T02:29:00;19.60;56.40
19403;DHT22;9837;48.888;8.998;2023-05-07T02:33:52;19.40;56.80
19403;DHT22;9837;48.888;8.998;2023-05-07T02:36:17;19.40;56.80
19403;DHT22;9837;48.888;8.998;2023-05-07T02:38:42;19.50;56.60
19403;DHT22;9837;48.888;8.998;2023-05-07T02:43:34;19.60;56.40
19403;DHT22;9837;48.888;8.998;2023-05-07T02:46:04;19.50;56.60
19403;DHT22;9837;48.888;8.998;2023-05-07T02:48:30;19.40;57.00
19403;DHT22;9837;48.888;8.998;2023-05-07T02:53:21;19.20;57.50
19403;DHT22;9837;48.888;8.998;2023-05-07T02:55:47;19.10;57.80
19403;DHT22;9837;48.888;8.998;2023-05-07T02:58:13;19.00;58.10
19403;DHT22;9837;48.888;8.998;2023-05-07T03:00:38;19.00;58.10
19403;DHT22;9837;48.888;8.998;2023-05-07T03:03:04;19.00;58.20
19403;DHT22;9837;48.888;8.998;2023-05-07T03:05:29;19.00;58.30
19403;DHT22;9837;48.888;8.998;2023-05-07T03:07:55;18.90;58.30
19403;DHT22;9837;48.888;8.998;2023-05-07T03:10:21;18.90;58.40
19403;DHT22;9837;48.888;8.998;2023-05-07T03:12:46;19.00;58.20
19403;DHT22;9837;48.888;8.998;2023-05-07T03:15:12;19.00;58.00
19403;DHT22;9837;48.888;8.998;2023-05-07T03:17:38;19.00;58.00
19403;DHT22;9837;48.888;8.998;2023-05-07T03:20:04;19.10;58.00
19403;DHT22;9837;48.888;8.998;2023-05-07T03:22:30;19.10;57.90
19403;DHT22;9837;48.888;8.998;2023-05-07T03:24:55;19.10;57.80
19403;DHT22;9837;48.888;8.998;2023-05-07T03:27:21;19.20;57.80
19403;DHT22;9837;48.888;8.998;2023-05-07T03:29:46;19.10;57.80
19403;DHT22;9837;48.888;8.998;2023-05-07T03:34:38;19.00;58.20
19403;DHT22;9837;48.888;8.998;2023-05-07T03:37:03;18.90;58.50
19403;DHT22;9837;48.888;8.998;2023-05-07T03:39:29;18.90;58.70
19403;DHT22;9837;48.888;8.998;2023-05-07T03:41:54;18.90;58.70
19403;DHT22;9837;48.888;8.998;2023-05-07T03:44:20;18.90;58.60
19403;DHT22;9837;48.888;8.998;2023-05-07T03:46:45;18.90;58.90
19403;DHT22;9837;48.888;8.998;2023-05-07T03:49:11;18.80;59.00
19403;DHT22;9837;48.888;8.998;2023-05-07T03:51:36;18.80;59.10
19403;DHT22;9837;48.888;8.998;2023-05-07T03:54:02;18.70;59.10
19403;DHT22;9837;48.888;8.998;2023-05-07T03:56:27;18.70;59.30
19403;DHT22;9837;48.888;8.998;2023-05-07T03:58:53;18.70;59.30
19403;DHT22;9837;48.888;8.998;2023-05-07T04:01:19;18.70;59.50
19403;DHT22;9837;48.888;8.998;2023-05-07T04:03:45;18.60;59.80
19403;DHT22;9837;48.888;8.998;2023-05-07T04:06:10;18.50;59.90
19403;DHT22;9837;48.888;8.998;2023-05-07T04:08:36;18.50;60.10
19403;DHT22;9837;48.888;8.998;2023-05-07T04:11:02;18.60;60.00
19403;DHT22;9837;48.888;8.998;2023-05-07T04:13:27;18.70;59.70
19403;DHT22;9837;48.888;8.998;2023-05-07T04:15:54;18.90;59.50
19403;DHT22;9837;48.888;8.998;2023-05-07T04:18:20;18.90;59.40
19403;DHT22;9837;48.888;8.998;2023-05-07T04:20:47;18.90;59.30
19403;DHT22;9837;48.888;8.998;2023-05-07T04:23:12;18.90;59.20
19403;DHT22;9837;48.888;8.998;2023-05-07T04:25:38;18.90;59.10
19403;DHT22;9837;48.888;8.998;2023-05-07T04:28:03;18.90;59.20
19403;DHT22;9837;48.888;8.998;2023-05-07T04:30:29;18.60;59.90
19403;DHT22;9837;48.888;8.998;2023-05-07T04:32:55;18.60;60.10
19403;DHT22;9837;48.888;8.998;2023-05-07T04:35:21;18.60;60.00
19403;DHT22;9837;48.888;8.998;2023-05-07T04:37:47;18.50;60.10
19403;DHT22;9837;48.888;8.998;2023-05-07T04:40:12;18.70;59.90
19403;DHT22;9837;48.888;8.998;2023-05-07T04:42:38;18.80;59.70
19403;DHT22;9837;48.888;8.998;2023-05-07T04:45:04;19.00;59.20
19403;DHT22;9837;48.888;8.998;2023-05-07T04:47:30;19.20;58.90
19403;DHT22;9837;48.888;8.998;2023-05-07T04:49:57;19.40;58.50
19403;DHT22;9837;48.888;8.998;2023-05-07T04:52:22;19.60;58.30
19403;DHT22;9837;48.888;8.998;2023-05-07T04:54:48;19.70;57.80
19403;DHT22;9837;48.888;8.998;2023-05-07T04:57:13;19.80;57.40
19403;DHT22;9837;48.888;8.998;2023-05-07T04:59:39;19.90;57.10
19403;DHT22;9837;48.888;8.998;2023-05-07T05:02:04;19.90;57.30
19403;DHT22;9837;48.888;8.998;2023-05-07T05:04:30;20.00;56.90
19403;DHT22;9837;48.888;8.998;2023-05-07T05:06:56;20.00;56.60
19403;DHT22;9837;48.888;8.998;2023-05-07T05:09:21;19.90;56.90
19403;DHT22;9837;48.888;8.998;2023-05-07T05:11:47;19.80;57.30
19403;DHT22;9837;48.888;8.998;2023-05-07T05:14:13;19.90;57.20
19403;DHT22;9837;48.888;8.998;2023-05-07T05:16:38;19.90;57.00
19403;DHT22;9837;48.888;8.998;2023-05-07T05:19:04;19.90;57.10
19403;DHT22;9837;48.888;8.998;2023-05-07T05:21:29;19.90;57.10
19403;DHT22;9837;48.888;8.998;2023-05-07T05:23:55;20.30;57.50
19403;DHT22;9837;48.888;8.998;2023-05-07T05:26:20;21.70;54.90
19403;DHT22;9837;48.888;8.998;2023-05-07T05:28:49;23.30;51.00
19403;DHT22;9837;48.888;8.998;2023-05-07T05:31:16;24.80;47.30
19403;DHT22;9837;48.888;8.998;2023-05-07T05:36:09;27.00;42.80
19403;DHT22;9837;48.888;8.998;2023-05-07T05:38:35;27.70;41.80
19403;DHT22;9837;48.888;8.998;2023-05-07T05:45:52;28.00;39.50
19403;DHT22;9837;48.888;8.998;2023-05-07T05:48:18;27.00;41.30
19403;DHT22;9837;48.888;8.998;2023-05-07T05:50:43;26.30;42.30
19403;DHT22;9837;48.888;8.998;2023-05-07T05:53:09;26.20;42.60
19403;DHT22;9837;48.888;8.998;2023-05-07T05:55:34;25.50;43.40
19403;DHT22;9837;48.888;8.998;2023-05-07T05:58:00;24.70;45.60
19403;DHT22;9837;48.888;8.998;2023-05-07T06:02:52;23.10;48.90
19403;DHT22;9837;48.888;8.998;2023-05-07T06:05:18;22.60;49.80
19403;DHT22;9837;48.888;8.998;2023-05-07T06:07:43;22.20;50.70
19403;DHT22;9837;48.888;8.998;2023-05-07T06:10:09;22.70;51.00
19403;DHT22;9837;48.888;8.998;2023-05-07T06:12:34;24.00;48.10
19403;DHT22;9837;48.888;8.998;2023-05-07T06:15:00;25.50;45.10
19403;DHT22;9837;48.888;8.998;2023-05-07T06:19:52;24.10;46.00
19403;DHT22;9837;48.888;8.998;2023-05-07T06:24:44;23.90;47.30
19403;DHT22;9837;48.888;8.998;2023-05-07T06:27:09;23.90;47.40
19403;DHT22;9837;48.888;8.998;2023-05-07T06:29:35;23.30;48.10
19403;DHT22;9837;48.888;8.998;2023-05-07T06:32:10;22.80;49.70
19403;DHT22;9837;48.888;8.998;2023-05-07T06:34:36;22.30;51.10
19403;DHT22;9837;48.888;8.998;2023-05-07T06:37:02;22.30;51.70
19403;DHT22;9837;48.888;8.998;2023-05-07T06:39:28;24.30;48.80
19403;DHT22;9837;48.888;8.998;2023-05-07T06:41:53;25.80;45.10
19403;DHT22;9837;48.888;8.998;2023-05-07T06:44:19;26.60;43.80
19403;DHT22;9837;48.888;8.998;2023-05-07T06:46:45;27.60;42.20
19403;DHT22;9837;48.888;8.998;2023-05-07T06:51:36;29.00;40.30
19403;DHT22;9837;48.888;8.998;2023-05-07T06:54:02;29.60;38.60
19403;DHT22;9837;48.888;8.998;2023-05-07T06:56:30;29.70;38.30
19403;DHT22;9837;48.888;8.998;2023-05-07T07:01:21;30.10;37.40
19403;DHT22;9837;48.888;8.998;2023-05-07T07:03:47;30.40;36.80
19403;DHT22;9837;48.888;8.998;2023-05-07T07:06:12;30.10;37.10
19403;DHT22;9837;48.888;8.998;2023-05-07T07:08:38;30.00;37.80
19403;DHT22;9837;48.888;8.998;2023-05-07T07:11:04;29.70;37.30
19403;DHT22;9837;48.888;8.998;2023-05-07T07:13:30;28.90;38.40
19403;DHT22;9837;48.888;8.998;2023-05-07T07:15:55;27.70;39.90
19403;DHT22;9837;48.888;8.998;2023-05-07T07:18:21;26.30;42.90
19403;DHT22;9837;48.888;8.998;2023-05-07T07:20:46;25.60;44.40
19403;DHT22;9837;48.888;8.998;2023-05-07T07:23:12;25.40;45.20
19403;DHT22;9837;48.888;8.998;2023-05-07T07:25:37;25.50;45.30
19403;DHT22;9837;48.888;8.998;2023-05-07T07:28:03;25.70;45.20
19403;DHT22;9837;48.888;8.998;2023-05-07T07:32:54;25.70;45.40
19403;DHT22;9837;48.888;8.998;2023-05-07T07:37:51;25.80;45.30
19403;DHT22;9837;48.888;8.998;2023-05-07T07:40:17;25.60;45.90
19403;DHT22;9837;48.888;8.998;2023-05-07T07:42:42;25.40;45.10
19403;DHT22;9837;48.888;8.998;2023-05-07T07:45:08;24.90;46.40
19403;DHT22;9837;48.888;8.998;2023-05-07T07:49:59;23.90;48.70
19403;DHT22;9837;48.888;8.998;2023-05-07T07:52:25;23.60;49.60
19403;DHT22;9837;48.888;8.998;2023-05-07T07:54:51;23.80;49.80
19403;DHT22;9837;48.888;8.998;2023-05-07T07:57:16;23.80;49.50
19403;DHT22;9837;48.888;8.998;2023-05-07T07:59:41;23.60;49.50
19403;DHT22;9837;48.888;8.998;2023-05-07T08:02:08;23.50;50.40
19403;DHT22;9837;48.888;8.998;2023-05-07T08:04:34;23.40;50.50
19403;DHT22;9837;48.888;8.998;2023-05-07T08:07:00;23.50;50.80
19403;DHT22;9837;48.888;8.998;2023-05-07T08:09:26;23.60;50.80
19403;DHT22;9837;48.888;8.998;2023-05-07T08:11:52;23.60;50.80
19403;DHT22;9837;48.888;8.998;2023-05-07T08:16:43;23.70;50.60
19403;DHT22;9837;48.888;8.998;2023-05-07T08:19:09;23.60;50.70
19403;DHT22;9837;48.888;8.998;2023-05-07T08:21:38;23.70;51.10
19403;DHT22;9837;48.888;8.998;2023-05-07T08:26:30;23.90;50.00
19403;DHT22;9837;48.888;8.998;2023-05-07T08:28:56;24.00;50.80
19403;DHT22;9837;48.888;8.998;2023-05-07T08:31:21;23.90;51.00
19403;DHT22;9837;48.888;8.998;2023-05-07T08:33:47;24.00;50.70
19403;DHT22;9837;48.888;8.998;2023-05-07T08:36:12;24.50;50.70
19403;DHT22;9837;48.888;8.998;2023-05-07T08:38:38;24.90;48.80
19403;DHT22;9837;48.888;8.998;2023-05-07T08:41:05;25.20;48.30
19403;DHT22;9837;48.888;8.998;2023-05-07T08:43:33;25.70;48.10
19403;DHT22;9837;48.888;8.998;2023-05-07T08:46:01;26.00;46.80
19403;DHT22;9837;48.888;8.998;2023-05-07T08:48:29;26.40;46.60
19403;DHT22;9837;48.888;8.998;2023-05-07T08:50:57;26.70;45.60
19403;DHT22;9837;48.888;8.998;2023-05-07T08:53:23;27.10;45.10
19403;DHT22;9837;48.888;8.998;2023-05-07T08:55:49;27.20;44.60
19403;DHT22;9837;48.888;8.998;2023-05-07T08:58:14;27.10;44.50
19403;DHT22;9837;48.888;8.998;2023-05-07T09:00:40;27.10;45.40
19403;DHT22;9837;48.888;8.998;2023-05-07T09:05:32;26.60;45.60
19403;DHT22;9837;48.888;8.998;2023-05-07T09:08:07;26.60;45.90
19403;DHT22;9837;48.888;8.998;2023-05-07T09:10:34;27.00;45.10
19403;DHT22;9837;48.888;8.998;2023-05-07T09:12:59;27.20;44.80
19403;DHT22;9837;48.888;8.998;2023-05-07T09:15:26;27.30;45.20
19403;DHT22;9837;48.888;8.998;2023-05-07T09:17:52;27.20;44.60
19403;DHT22;9837;48.888;8.998;2023-05-07T09:20:18;27.40;44.60
19403;DHT22;9837;48.888;8.998;2023-05-07T09:22:44;27.40;44.80
19403;DHT22;9837;48.888;8.998;2023-05-07T09:25:09;27.50;44.30
19403;DHT22;9837;48.888;8.998;2023-05-07T09:27:35;27.70;43.50
19403;DHT22;9837;48.888;8.998;2023-05-07T09:30:07;27.60;44.20
19403;DHT22;9837;48.888;8.998;2023-05-07T09:32:37;27.50;44.80
19403;DHT22;9837;48.888;8.998;2023-05-07T09:35:03;27.30;44.70
19403;DHT22;9837;48.888;8.998;2023-05-07T09:37:31;27.40;44.70
19403;DHT22;9837;48.888;8.998;2023-05-07T09:39:57;27.50;44.80
19403;DHT22;9837;48.888;8.998;2023-05-07T09:42:24;27.80;45.60
19403;DHT22;9837;48.888;8.998;2023-05-07T09:44:51;28.10;44.70
19403;DHT22;9837;48.888;8.998;2023-05-07T09:47:20;28.40;43.70
19403;DHT22;9837;48.888;8.998;2023-05-07T09:49:48;28.30;43.90
19403;DHT22;9837;48.888;8.998;2023-05-07T09:52:16;28.30;44.10
19403;DHT22;9837;48.888;8.998;2023-05-07T09:54:43;28.10;43.90
19403;DHT22;9837;48.888;8.998;2023-05-07T09:57:10;28.10;44.30
19403;DHT22;9837;48.888;8.998;2023-05-07T09:59:38;27.90;44.90
19403;DHT22;9837;48.888;8.998;2023-05-07T10:02:04;27.90;43.90
19403;DHT22;9837;48.888;8.998;2023-05-07T10:04:31;27.80;43.70
19403;DHT22;9837;48.888;8.998;2023-05-07T10:06:59;27.40;44.80
19403;DHT22;9837;48.888;8.998;2023-05-07T10:09:26;27.00;45.40
19403;DHT22;9837;48.888;8.998;2023-05-07T10:11:52;27.00;46.30
19403;DHT22;9837;48.888;8.998;2023-05-07T10:14:20;27.10;45.20
19403;DHT22;9837;48.888;8.998;2023-05-07T10:16:47;27.10;45.60
19403;DHT22;9837;48.888;8.998;2023-05-07T10:19:14;27.10;45.30
19403;DHT22;9837;48.888;8.998;2023-05-07T10:21:44;27.00;46.20
19403;DHT22;9837;48.888;8.998;2023-05-07T10:24:16;27.00;45.60
19403;DHT22;9837;48.888;8.998;2023-05-07T10:26:44;26.90;45.80
19403;DHT22;9837;48.888;8.998;2023-05-07T10:29:29;27.20;45.70
19403;DHT22;9837;48.888;8.998;2023-05-07T10:34:42;27.10;45.00
19403;DHT22;9837;48.888;8.998;2023-05-07T10:37:09;27.30;44.40
19403;DHT22;9837;48.888;8.998;2023-05-07T10:39:35;27.50;44.40
19403;DHT22;9837;48.888;8.998;2023-05-07T10:42:12;27.50;44.90
19403;DHT22;9837;48.888;8.998;2023-05-07T10:44:38;27.60;44.00
19403;DHT22;9837;48.888;8.998;2023-05-07T10:47:08;27.60;44.20
19403;DHT22;9837;48.888;8.998;2023-05-07T10:52:29;27.90;43.90
19403;DHT22;9837;48.888;8.998;2023-05-07T10:55:19;27.60;44.70
19403;DHT22;9837;48.888;8.998;2023-05-07T10:57:46;27.30;45.80
19403;DHT22;9837;48.888;8.998;2023-05-07T11:05:29;26.90;47.90
19403;DHT22;9837;48.888;8.998;2023-05-07T11:07:56;27.10;47.00
19403;DHT22;9837;48.888;8.998;2023-05-07T11:10:22;27.30;46.80
19403;DHT22;9837;48.888;8.998;2023-05-07T11:12:51;27.50;46.90
19403;DHT22;9837;48.888;8.998;2023-05-07T11:15:34;27.30;45.60
19403;DHT22;9837;48.888;8.998;2023-05-07T11:18:00;26.80;47.00
19403;DHT22;9837;48.888;8.998;2023-05-07T11:26:00;25.70;46.70
19403;DHT22;9837;48.888;8.998;2023-05-07T11:28:31;27.00;47.80
19403;DHT22;9837;48.888;8.998;2023-05-07T11:31:01;27.20;46.10
19403;DHT22;9837;48.888;8.998;2023-05-07T11:33:27;27.20;45.80
19403;DHT22;9837;48.888;8.998;2023-05-07T11:35:56;27.30;46.50
19403;DHT22;9837;48.888;8.998;2023-05-07T11:38:23;27.50;46.80
19403;DHT22;9837;48.888;8.998;2023-05-07T11:40:56;27.50;47.10
19403;DHT22;9837;48.888;8.998;2023-05-07T11:43:22;27.50;46.30
19403;DHT22;9837;48.888;8.998;2023-05-07T11:45:48;27.50;45.60
19403;DHT22;9837;48.888;8.998;2023-05-07T11:48:14;27.60;46.90
19403;DHT22;9837;48.888;8.998;2023-05-07T11:51:08;27.30;46.50
19403;DHT22;9837;48.888;8.998;2023-05-07T11:53:41;26.90;47.80
19403;DHT22;9837;48.888;8.998;2023-05-07T11:56:12;27.00;46.90
19403;DHT22;9837;48.888;8.998;2023-05-07T12:01:04;27.40;46.30
19403;DHT22;9837;48.888;8.998;2023-05-07T12:03:29;27.90;45.40
19403;DHT22;9837;48.888;8.998;2023-05-07T12:08:21;28.20;44.00
19403;DHT22;9837;48.888;8.998;2023-05-07T12:10:48;28.20;43.70
19403;DHT22;9837;48.888;8.998;2023-05-07T12:13:23;27.90;43.60
19403;DHT22;9837;48.888;8.998;2023-05-07T12:15:55;27.90;44.10
19403;DHT22;9837;48.888;8.998;2023-05-07T12:18:22;28.10;44.00
19403;DHT22;9837;48.888;8.998;2023-05-07T12:20:48;28.40;42.90
19403;DHT22;9837;48.888;8.998;2023-05-07T12:23:15;28.20;42.40
19403;DHT22;9837;48.888;8.998;2023-05-07T12:25:42;28.40;43.50
19403;DHT22;9837;48.888;8.998;2023-05-07T12:28:19;28.60;42.80
19403;DHT22;9837;48.888;8.998;2023-05-07T12:30:46;28.50;42.50
19403;DHT22;9837;48.888;8.998;2023-05-07T12:33:12;28.50;41.60
19403;DHT22;9837;48.888;8.998;2023-05-07T12:35:40;28.30;42.20
19403;DHT22;9837;48.888;8.998;2023-05-07T12:38:13;28.20;42.90
19403;DHT22;9837;48.888;8.998;2023-05-07T12:40:47;28.00;44.50
19403;DHT22;9837;48.888;8.998;2023-05-07T12:45:47;27.20;47.00
19403;DHT22;9837;48.888;8.998;2023-05-07T12:48:13;27.00;47.10
19403;DHT22;9837;48.888;8.998;2023-05-07T12:50:39;26.80;47.80
19403;DHT22;9837;48.888;8.998;2023-05-07T12:53:06;26.60;47.60
19403;DHT22;9837;48.888;8.998;2023-05-07T12:55:43;26.60;47.40
19403;DHT22;9837;48.888;8.998;2023-05-07T12:58:18;26.50;47.70
19403;DHT22;9837;48.888;8.998;2023-05-07T13:00:44;26.50;47.00
19403;DHT22;9837;48.888;8.998;2023-05-07T13:03:11;26.50;46.80
19403;DHT22;9837;48.888;8.998;2023-05-07T13:05:37;26.20;47.70
19403;DHT22;9837;48.888;8.998;2023-05-07T13:08:02;25.80;48.50
19403;DHT22;9837;48.888;8.998;2023-05-07T13:10:28;25.80;48.20
19403;DHT22;9837;48.888;8.998;2023-05-07T13:12:54;25.80;47.60
19403;DHT22;9837;48.888;8.998;2023-05-07T13:15:20;25.50;47.80
19403;DHT22;9837;48.888;8.998;2023-05-07T13:17:46;24.90;48.00
19403;DHT22;9837;48.888;8.998;2023-05-07T13:20:11;24.30;48.10
19403;DHT22;9837;48.888;8.998;2023-05-07T13:22:38;23.90;51.10
19403;DHT22;9837;48.888;8.998;2023-05-07T13:25:04;23.50;51.40
19403;DHT22;9837;48.888;8.998;2023-05-07T13:27:30;23.10;52.70
19403;DHT22;9837;48.888;8.998;2023-05-07T13:29:56;23.00;52.60
19403;DHT22;9837;48.888;8.998;2023-05-07T13:32:22;23.00;55.20
19403;DHT22;9837;48.888;8.998;2023-05-07T13:34:47;22.50;58.50
19403;DHT22;9837;48.888;8.998;2023-05-07T13:37:13;22.00;61.10
19403;DHT22;9837;48.888;8.998;2023-05-07T13:39:38;21.50;59.10
19403;DHT22;9837;48.888;8.998;2023-05-07T13:42:04;21.10;63.00
19403;DHT22;9837;48.888;8.998;2023-05-07T13:44:29;20.80;65.10
19403;DHT22;9837;48.888;8.998;2023-05-07T13:46:55;20.50;65.90
19403;DHT22;9837;48.888;8.998;2023-05-07T13:49:20;20.00;66.00
19403;DHT22;9837;48.888;8.998;2023-05-07T13:51:46;19.90;67.90
19403;DHT22;9837;48.888;8.998;2023-05-07T13:54:11;19.00;71.40
19403;DHT22;9837;48.888;8.998;2023-05-07T13:56:37;19.30;71.30
19403;DHT22;9837;48.888;8.998;2023-05-07T13:59:02;19.20;70.60
19403;DHT22;9837;48.888;8.998;2023-05-07T14:01:28;19.70;70.90
19403;DHT22;9837;48.888;8.998;2023-05-07T14:03:53;20.10;70.90
19403;DHT22;9837;48.888;8.998;2023-05-07T14:06:19;20.30;68.80
19403;DHT22;9837;48.888;8.998;2023-05-07T14:08:45;20.20;69.70
19403;DHT22;9837;48.888;8.998;2023-05-07T14:11:10;20.30;68.50
19403;DHT22;9837;48.888;8.998;2023-05-07T14:13:36;20.30;70.30
19403;DHT22;9837;48.888;8.998;2023-05-07T14:16:03;20.20;69.30
19403;DHT22;9837;48.888;8.998;2023-05-07T14:18:29;20.40;68.90
19403;DHT22;9837;48.888;8.998;2023-05-07T14:20:54;20.80;67.10
19403;DHT22;9837;48.888;8.998;2023-05-07T14:23:20;20.90;66.20
19403;DHT22;9837;48.888;8.998;2023-05-07T14:25:50;20.80;65.60
19403;DHT22;9837;48.888;8.998;2023-05-07T14:28:16;20.90;66.20
19403;DHT22;9837;48.888;8.998;2023-05-07T14:30:41;20.90;66.40
19403;DHT22;9837;48.888;8.998;2023-05-07T14:33:07;21.10;66.40
19403;DHT22;9837;48.888;8.998;2023-05-07T14:37:58;21.40;65.80
19403;DHT22;9837;48.888;8.998;2023-05-07T14:40:24;21.50;65.50
19403;DHT22;9837;48.888;8.998;2023-05-07T14:45:15;21.80;64.40
19403;DHT22;9837;48.888;8.998;2023-05-07T14:50:07;21.90;64.50
19403;DHT22;9837;48.888;8.998;2023-05-07T14:54:58;22.00;63.80
19403;DHT22;9837;48.888;8.998;2023-05-07T15:02:16;22.30;62.60
19403;DHT22;9837;48.888;8.998;2023-05-07T15:07:14;22.60;62.10
19403;DHT22;9837;48.888;8.998;2023-05-07T15:09:44;22.30;63.40
19403;DHT22;9837;48.888;8.998;2023-05-07T15:12:09;22.10;65.00
19403;DHT22;9837;48.888;8.998;2023-05-07T15:14:36;21.70;66.40
19403;DHT22;9837;48.888;8.998;2023-05-07T15:17:01;21.50;68.20
19403;DHT22;9837;48.888;8.998;2023-05-07T15:19:27;21.30;68.90
19403;DHT22;9837;48.888;8.998;2023-05-07T15:21:56;21.60;69.40
19403;DHT22;9837;48.888;8.998;2023-05-07T15:24:23;21.90;68.40
19403;DHT22;9837;48.888;8.998;2023-05-07T15:26:48;22.30;66.90
19403;DHT22;9837;48.888;8.998;2023-05-07T15:29:14;22.30;66.50
19403;DHT22;9837;48.888;8.998;2023-05-07T15:31:40;22.20;66.50
19403;DHT22;9837;48.888;8.998;2023-05-07T15:34:05;22.20;66.70
19403;DHT22;9837;48.888;8.998;2023-05-07T15:36:31;22.30;67.20
19403;DHT22;9837;48.888;8.998;2023-05-07T15:38:57;22.50;66.50
19403;DHT22;9837;48.888;8.998;2023-05-07T15:41:22;22.50;64.20
19403;DHT22;9837;48.888;8.998;2023-05-07T15:43:50;22.60;63.90
19403;DHT22;9837;48.888;8.998;2023-05-07T15:46:22;22.60;63.70
19403;DHT22;9837;48.888;8.998;2023-05-07T15:48:52;22.50;64.70
19403;DHT22;9837;48.888;8.998;2023-05-07T15:53:45;22.50;64.00
19403;DHT22;9837;48.888;8.998;2023-05-07T15:56:10;22.50;65.00
19403;DHT22;9837;48.888;8.998;2023-05-07T15:58:36;22.60;64.10
19403;DHT22;9837;48.888;8.998;2023-05-07T16:01:02;22.60;64.20
19403;DHT22;9837;48.888;8.998;2023-05-07T16:03:28;22.60;64.00
19403;DHT22;9837;48.888;8.998;2023-05-07T16:05:54;22.60;63.60
19403;DHT22;9837;48.888;8.998;2023-05-07T16:10:48;22.70;64.70
19403;DHT22;9837;48.888;8.998;2023-05-07T16:15:43;22.90;63.10
19403;DHT22;9837;48.888;8.998;2023-05-07T16:18:09;22.90;62.60
19403;DHT22;9837;48.888;8.998;2023-05-07T16:20:35;22.90;62.20
19403;DHT22;9837;48.888;8.998;2023-05-07T16:23:00;22.90;62.70
19403;DHT22;9837;48.888;8.998;2023-05-07T16:25:26;22.80;62.90
19403;DHT22;9837;48.888;8.998;2023-05-07T16:27:52;22.70;62.50
19403;DHT22;9837;48.888;8.998;2023-05-07T16:30:19;22.70;63.80
19403;DHT22;9837;48.888;8.998;2023-05-07T16:35:10;22.60;64.40
19403;DHT22;9837;48.888;8.998;2023-05-07T16:37:39;22.60;64.50
19403;DHT22;9837;48.888;8.998;2023-05-07T16:40:06;22.50;63.60
19403;DHT22;9837;48.888;8.998;2023-05-07T16:42:35;22.40;63.70
19403;DHT22;9837;48.888;8.998;2023-05-07T16:45:02;22.40;65.20
19403;DHT22;9837;48.888;8.998;2023-05-07T16:49:54;22.20;65.60
19403;DHT22;9837;48.888;8.998;2023-05-07T16:54:46;22.10;66.60
19403;DHT22;9837;48.888;8.998;2023-05-07T16:57:11;21.90;67.10
19403;DHT22;9837;48.888;8.998;2023-05-07T16:59:37;21.70;66.90
19403;DHT22;9837;48.888;8.998;2023-05-07T17:04:28;21.60;67.20
19403;DHT22;9837;48.888;8.998;2023-05-07T17:06:55;21.60;67.40
19403;DHT22;9837;48.888;8.998;2023-05-07T17:09:21;21.60;67.60
19403;DHT22;9837;48.888;8.998;2023-05-07T17:11:47;21.70;66.90
19403;DHT22;9837;48.888;8.998;2023-05-07T17:14:13;21.60;67.40
19403;DHT22;9837;48.888;8.998;2023-05-07T17:16:38;21.30;68.70
19403;DHT22;9837;48.888;8.998;2023-05-07T17:19:04;21.30;69.10
19403;DHT22;9837;48.888;8.998;2023-05-07T17:23:55;21.10;69.30
19403;DHT22;9837;48.888;8.998;2023-05-07T17:26:21;21.00;69.60
19403;DHT22;9837;48.888;8.998;2023-05-07T17:28:46;21.20;69.10
19403;DHT22;9837;48.888;8.998;2023-05-07T17:31:12;21.40;68.20
19403;DHT22;9837;48.888;8.998;2023-05-07T17:33:37;21.50;67.10
19403;DHT22;9837;48.888;8.998;2023-05-07T17:38:29;21.70;66.00
19403;DHT22;9837;48.888;8.998;2023-05-07T17:40:57;21.70;66.30
19403;DHT22;9837;48.888;8.998;2023-05-07T17:43:23;21.70;66.10
19403;DHT22;9837;48.888;8.998;2023-05-07T17:45:49;21.60;66.80
19403;DHT22;9837;48.888;8.998;2023-05-07T17:48:15;21.50;66.80
19403;DHT22;9837;48.888;8.998;2023-05-07T17:53:09;21.50;65.90
19403;DHT22;9837;48.888;8.998;2023-05-07T17:55:34;21.50;66.20
19403;DHT22;9837;48.888;8.998;2023-05-07T17:58:05;21.50;66.60
19403;DHT22;9837;48.888;8.998;2023-05-07T18:00:31;21.40;66.70
19403;DHT22;9837;48.888;8.998;2023-05-07T18:02:57;21.30;67.10
19403;DHT22;9837;48.888;8.998;2023-05-07T18:05:24;21.10;67.70